Weather at Hang Nadim International Airport

Public forecast

Using degrees Celsius for public forecast. Weather courtesy of forecast.io.

Current aviation weather report (METAR) for Hang Nadim International Airport

2024/05/25 11:30 (retrieved 31 minutes ago)

WIDD 251130Z 16005KT 7000 -RA SCT014 26/25 Q1011 NOSIG

Aviation forecast (TAF) for Hang Nadim International Airport

2024/05/25 12:00 (retrieved 1 minute ago)

TAF WIDD 251100Z 2512/2612 16006KT 7000 -RA BKN014 TEMPO 2512/2515 3000 -TSRA FEW013CB BECMG 2516/2517 9000 NSW SCT014